Time;durP1;ratioP1;P1;durP2;ratioP2;P2;SDS_P1;SDS_P2;PMS_P1;PMS_P2;Temp;Humidity;BMP_temperature;BMP_pressure;BME280_temperature;BME280_humidity;BME280_pressure;Samples;Min_cycle;Max_cycle;Signal;HPM_P1;HPM_P2
2022/04/03 00:00:15;;;;;;;;;;;;;;;-1.65;47.49;100516.97;1760331;81;20213;-71
2022/04/03 00:02:42;;;;;;;;;;;;;;;-1.68;47.61;100518.92;1760569;81;20138;-71
2022/04/03 00:05:08;;;;;;;;;;;;;;;-1.71;47.71;100517.34;1760702;81;20200;-71
2022/04/03 00:07:34;;;;;;;;;;;;;;;-1.75;47.83;100519.75;1760675;81;20228;-71
2022/04/03 00:10:00;;;;;;;;;;;;;;;-1.80;47.96;100513.97;1752978;80;20213;-71
2022/04/03 00:12:26;;;;;;;;;;;;;;;-1.82;48.09;100515.81;1753517;81;20165;-71
2022/04/03 00:14:53;;;;;;;;;;;;;;;-1.87;48.22;100513.95;1760558;81;21180;-71
2022/04/03 00:17:19;;;;;;;;;;;;;;;-1.89;48.33;100516.25;1760395;81;20149;-71
2022/04/03 00:19:45;;;;;;;;;;;;;;;-1.94;48.48;100523.06;1760663;81;20240;-71
2022/04/03 00:22:11;;;;;;;;;;;;;;;-2.01;48.62;100516.51;1760368;81;20197;-71
2022/04/03 00:24:37;;;;;;;;;;;;;;;-2.09;48.75;100520.86;1760648;81;20166;-71
2022/04/03 00:27:03;;;;;;;;;;;;;;;-2.14;48.90;100515.50;1760354;81;21946;-71
2022/04/03 00:29:29;;;;;;;;;;;;;;;-2.19;49.04;100524.08;1760419;81;20197;-71
2022/04/03 00:31:55;;;;;;;;;;;;;;;-2.24;49.19;100523.48;1760123;81;20236;-71
2022/04/03 00:34:22;;;;;;;;;;;;;;;-2.24;49.32;100523.48;1760610;81;20265;-71
2022/04/03 00:36:47;;;;;;;;;;;;;;;-2.26;49.44;100518.82;1761029;81;20524;-71
2022/04/03 00:39:13;;;;;;;;;;;;;;;-2.29;49.58;100521.61;1762437;81;21203;-70
2022/04/03 00:41:39;;;;;;;;;;;;;;;-2.34;49.70;100528.84;1762651;81;20512;-71
2022/04/03 00:44:05;;;;;;;;;;;;;;;-2.38;49.85;100529.47;1762430;81;20816;-71
2022/04/03 00:46:31;;;;;;;;;;;;;;;-2.42;49.99;100527.95;1762381;81;20283;-71
2022/04/03 00:48:59;;;;;;;;;;;;;;;-2.44;50.13;100531.59;1734585;81;20185;-71
2022/04/03 00:51:26;;;;;;;;;;;;;;;-2.47;50.26;100525.23;1762244;81;20894;-71
2022/04/03 00:53:52;;;;;;;;;;;;;;;-2.55;50.37;100526.50;1762141;81;20483;-71
2022/04/03 00:56:17;;;;;;;;;;;;;;;-2.59;50.53;100530.20;1762316;80;20200;-71
2022/04/03 00:58:43;;;;;;;;;;;;;;;-2.62;50.67;100527.76;1762657;80;20193;-71
2022/04/03 01:01:09;;;;;;;;;;;;;;;-2.65;50.80;100525.31;1762745;81;20760;-70
2022/04/03 01:03:35;;;;;;;;;;;;;;;-2.70;50.92;100524.71;1762655;81;21227;-71
2022/04/03 01:06:01;;;;;;;;;;;;;;;-2.75;51.07;100528.05;1762547;81;20496;-70
2022/04/03 01:08:27;;;;;;;;;;;;;;;-2.78;51.19;100524.27;1762452;81;20489;-71
2022/04/03 01:10:53;;;;;;;;;;;;;;;-2.81;51.34;100524.91;1762803;81;20196;-71
2022/04/03 01:13:21;;;;;;;;;;;;;;;-2.84;51.46;100524.61;1762705;80;20200;-70
2022/04/03 01:15:54;;;;;;;;;;;;;;;-2.86;51.61;100529.09;1762576;80;21066;-71
2022/04/03 01:18:22;;;;;;;;;;;;;;;-2.88;51.75;100524.85;1762117;81;20158;-71
2022/04/03 01:20:48;;;;;;;;;;;;;;;-2.91;51.92;100529.78;1762576;81;20970;-70
2022/04/03 01:23:14;;;;;;;;;;;;;;;-2.92;52.04;100530.69;1762554;81;20148;-71
2022/04/03 01:25:40;;;;;;;;;;;;;;;-2.93;52.19;100532.95;1762722;81;20200;-71
2022/04/03 01:28:06;;;;;;;;;;;;;;;-2.93;52.33;100526.42;1762541;81;21133;-71
2022/04/03 01:30:32;;;;;;;;;;;;;;;-2.93;52.45;100529.48;1735349;81;20178;-71
2022/04/03 01:32:58;;;;;;;;;;;;;;;-2.95;52.59;100529.55;1762530;81;20205;-71
2022/04/03 01:35:24;;;;;;;;;;;;;;;-2.97;52.74;100534.03;1762708;81;20752;-71
2022/04/03 01:37:50;;;;;;;;;;;;;;;-3.00;52.89;100543.33;1762548;81;20216;-71
2022/04/03 01:40:16;;;;;;;;;;;;;;;-3.04;53.03;100540.48;1762507;81;21220;-71
2022/04/03 01:42:42;;;;;;;;;;;;;;;-3.06;53.18;100540.56;1762478;81;20196;-70
2022/04/03 01:45:09;;;;;;;;;;;;;;;-3.07;53.32;100540.20;1762434;81;20731;-70
2022/04/03 01:47:36;;;;;;;;;;;;;;;-3.08;53.46;100538.96;1762256;81;20177;-70
2022/04/03 01:50:04;;;;;;;;;;;;;;;-3.10;53.62;100536.91;1762451;81;20478;-71
2022/04/03 01:52:30;;;;;;;;;;;;;;;-3.12;53.75;100536.13;1762462;81;21120;-70
2022/04/03 01:54:56;;;;;;;;;;;;;;;-3.14;53.87;100539.29;1762538;81;20294;-69
2022/04/03 01:57:22;;;;;;;;;;;;;;;-3.15;54.01;100551.94;1762421;81;20295;-70
2022/04/03 01:59:48;;;;;;;;;;;;;;;-3.15;54.11;100545.42;1762696;81;20160;-69
2022/04/03 02:02:13;;;;;;;;;;;;;;;-3.15;54.25;100550.18;1762544;81;20255;-70
2022/04/03 02:04:39;;;;;;;;;;;;;;;-3.14;54.36;100552.33;1762568;81;21168;-70
2022/04/03 02:07:05;;;;;;;;;;;;;;;-3.15;54.46;100546.27;1762503;81;20930;-70
2022/04/03 02:09:31;;;;;;;;;;;;;;;-3.17;54.58;100548.58;1762669;81;20206;-70
2022/04/03 02:11:58;;;;;;;;;;;;;;;-3.20;54.70;100550.05;1762635;81;20183;-70
2022/04/03 02:14:28;;;;;;;;;;;;;;;-3.19;54.83;100562.14;1762561;81;20222;-70
2022/04/03 02:16:54;;;;;;;;;;;;;;;-3.22;54.94;100559.70;1761696;81;21098;-70
2022/04/03 02:19:20;;;;;;;;;;;;;;;-3.23;55.06;100558.00;1761836;81;20135;-70
2022/04/03 02:21:46;;;;;;;;;;;;;;;-3.24;55.18;100561.55;1762383;81;20182;-70
2022/04/03 02:24:12;;;;;;;;;;;;;;;-3.26;55.33;100564.23;1762611;81;20252;-70
2022/04/03 02:26:38;;;;;;;;;;;;;;;-3.27;55.45;100563.02;1762593;81;20192;-70
2022/04/03 02:29:04;;;;;;;;;;;;;;;-3.28;55.55;100562.63;1762697;80;21020;-70
2022/04/03 02:31:30;;;;;;;;;;;;;;;-3.32;55.63;100565.86;1762338;81;20851;-71
2022/04/03 02:33:55;;;;;;;;;;;;;;;-3.33;55.72;100564.61;1762579;81;20308;-70
2022/04/03 02:36:21;;;;;;;;;;;;;;;-3.37;55.80;100568.30;1762326;81;20152;-70
2022/04/03 02:38:47;;;;;;;;;;;;;;;-3.39;55.90;100571.00;1760641;81;20216;-70
2022/04/03 02:41:13;;;;;;;;;;;;;;;-3.39;55.98;100567.55;1760743;81;21184;-70
2022/04/03 02:43:39;;;;;;;;;;;;;;;-3.42;56.11;100570.31;1760696;81;20147;-70
2022/04/03 02:46:06;;;;;;;;;;;;;;;-3.44;56.21;100575.59;1745106;81;20687;-70
2022/04/03 02:48:33;;;;;;;;;;;;;;;-3.45;56.33;100573.08;1723009;83;20180;-70
2022/04/03 02:51:01;;;;;;;;;;;;;;;-3.46;56.43;100572.69;1688639;85;20148;-70
2022/04/03 02:53:27;;;;;;;;;;;;;;;-3.45;56.53;100579.59;1724460;83;21071;-70
2022/04/03 02:55:53;;;;;;;;;;;;;;;-3.46;56.64;100580.05;1720357;83;20186;-70
2022/04/03 02:58:18;;;;;;;;;;;;;;;-3.49;56.75;100574.99;1724847;82;20287;-70
2022/04/03 03:00:46;;;;;;;;;;;;;;;-3.50;56.89;100588.09;1718893;83;20203;-69
2022/04/03 03:03:12;;;;;;;;;;;;;;;-3.54;56.99;100585.64;1695674;84;20155;-70
2022/04/03 03:05:38;;;;;;;;;;;;;;;-3.55;57.07;100581.34;1695771;84;21321;-70
2022/04/03 03:08:04;;;;;;;;;;;;;;;-3.57;57.17;100585.80;1695865;84;20168;-70
2022/04/03 03:10:31;;;;;;;;;;;;;;;-3.57;57.28;100588.86;1695642;84;20170;-70
2022/04/03 03:12:57;;;;;;;;;;;;;;;-3.61;57.35;100590.77;1695172;84;20143;-70
2022/04/03 03:15:23;;;;;;;;;;;;;;;-3.62;57.47;100586.92;1690656;84;20170;-70
2022/04/03 03:17:49;;;;;;;;;;;;;;;-3.62;57.53;100592.98;1724750;82;21941;-70
2022/04/03 03:20:15;;;;;;;;;;;;;;;-3.62;57.62;100594.74;1720391;83;20298;-70
2022/04/03 03:22:41;;;;;;;;;;;;;;;-3.62;57.72;100590.38;1724494;83;20164;-70
2022/04/03 03:25:07;;;;;;;;;;;;;;;-3.59;57.80;100588.92;1708254;84;20172;-71
2022/04/03 03:27:36;;;;;;;;;;;;;;;-3.57;57.88;100586.25;1720309;83;20184;-70
2022/04/03 03:30:04;;;;;;;;;;;;;;;-3.55;57.98;100587.00;1710801;83;21156;-71
2022/04/03 03:32:29;;;;;;;;;;;;;;;-3.51;58.08;100582.02;1705629;84;20493;-70
2022/04/03 03:34:55;;;;;;;;;;;;;;;-3.47;58.19;100587.93;1724850;83;20290;-70
2022/04/03 03:37:21;;;;;;;;;;;;;;;-3.44;58.27;100587.77;1721775;82;20179;-70
2022/04/03 03:39:47;;;;;;;;;;;;;;;-3.40;58.34;100595.83;1731456;83;20865;-70
2022/04/03 03:42:14;;;;;;;;;;;;;;;-3.37;58.40;100593.06;1707464;84;21204;-70
2022/04/03 03:44:40;;;;;;;;;;;;;;;-3.35;58.49;100591.23;1705508;84;20150;-70
2022/04/03 03:47:07;;;;;;;;;;;;;;;-3.32;58.55;100587.16;1731910;83;20223;-70
2022/04/03 03:49:34;;;;;;;;;;;;;;;-3.29;58.62;100592.22;1705547;84;20486;-70
2022/04/03 03:52:00;;;;;;;;;;;;;;;-3.27;58.68;100593.82;1731987;83;20479;-70
2022/04/03 03:54:26;;;;;;;;;;;;;;;-3.25;58.78;100597.67;1729758;83;21098;-70
2022/04/03 03:56:52;;;;;;;;;;;;;;;-3.23;58.85;100598.42;1714350;83;20297;-70
2022/04/03 03:59:18;;;;;;;;;;;;;;;-3.21;58.91;100603.11;1714284;83;20835;-70
2022/04/03 04:01:44;;;;;;;;;;;;;;;-3.19;58.95;100603.86;1714263;83;20267;-70
2022/04/03 04:04:10;;;;;;;;;;;;;;;-3.18;59.01;100605.56;1714516;83;20236;-70
2022/04/03 04:06:35;;;;;;;;;;;;;;;-3.17;59.07;100610.72;1714327;83;22085;-70
2022/04/03 04:09:01;;;;;;;;;;;;;;;-3.16;59.12;100609.77;1714293;83;20224;-70
2022/04/03 04:11:27;;;;;;;;;;;;;;;-3.16;59.17;100608.47;1713899;83;20236;-70
2022/04/03 04:13:53;;;;;;;;;;;;;;;-3.14;59.24;100620.14;1714488;83;20215;-70
2022/04/03 04:16:19;;;;;;;;;;;;;;;-3.14;59.29;100613.16;1714256;83;20228;-70
2022/04/03 04:18:45;;;;;;;;;;;;;;;-3.15;59.34;100621.05;1714186;83;21788;-70
2022/04/03 04:21:12;;;;;;;;;;;;;;;-3.16;59.37;100621.95;1714438;83;20146;-71
2022/04/03 04:23:38;;;;;;;;;;;;;;;-3.16;59.43;100618.89;1714191;83;20154;-71
2022/04/03 04:26:04;;;;;;;;;;;;;;;-3.17;59.49;100623.75;1714554;83;20744;-71
2022/04/03 04:28:30;;;;;;;;;;;;;;;-3.18;59.55;100621.20;1714180;83;20188;-71
2022/04/03 04:30:57;;;;;;;;;;;;;;;-3.21;59.59;100623.52;1714167;83;21903;-71
2022/04/03 04:33:24;;;;;;;;;;;;;;;-3.25;59.62;100619.83;1714287;83;20213;-71
2022/04/03 04:35:50;;;;;;;;;;;;;;;-3.26;59.67;100625.95;1714435;83;20193;-70
2022/04/03 04:38:17;;;;;;;;;;;;;;;-3.28;59.71;100627.81;1704820;83;20202;-71
2022/04/03 04:40:43;;;;;;;;;;;;;;;-3.27;59.75;100629.02;1705489;84;20194;-71
2022/04/03 04:43:10;;;;;;;;;;;;;;;-3.26;59.81;100637.69;1705574;84;21140;-71
2022/04/03 04:45:36;;;;;;;;;;;;;;;-3.25;59.82;100638.08;1705113;84;20226;-71
2022/04/03 04:48:02;;;;;;;;;;;;;;;-3.25;59.88;100634.17;1705388;84;20843;-71
2022/04/03 04:50:29;;;;;;;;;;;;;;;-3.20;59.92;100642.62;1705217;84;20548;-71
2022/04/03 04:52:56;;;;;;;;;;;;;;;-3.18;59.94;100638.16;1705402;84;20552;-71
2022/04/03 04:55:22;;;;;;;;;;;;;;;-3.14;59.95;100638.39;1705570;84;21042;-71
2022/04/03 04:57:55;;;;;;;;;;;;;;;-3.14;59.96;100646.22;1705150;84;20244;-71
2022/04/03 05:00:22;;;;;;;;;;;;;;;-3.17;59.98;100650.28;1705642;84;20166;-71
2022/04/03 05:02:48;;;;;;;;;;;;;;;-3.19;60.00;100648.20;1705440;84;20178;-71
2022/04/03 05:05:15;;;;;;;;;;;;;;;-3.16;60.04;100651.95;1705290;84;20177;-71
2022/04/03 05:07:42;;;;;;;;;;;;;;;-3.11;60.08;100657.79;1705019;84;21767;-71
2022/04/03 05:10:08;;;;;;;;;;;;;;;-2.96;60.14;100655.72;1704255;84;20291;-71
2022/04/03 05:12:34;;;;;;;;;;;;;;;-2.62;60.20;100663.48;1699309;84;20182;-71
2022/04/03 05:15:01;;;;;;;;;;;;;;;-2.56;60.15;100667.53;1701154;84;20308;-71
2022/04/03 05:17:28;;;;;;;;;;;;;;;-2.53;60.14;100662.98;1703840;84;20216;-71
2022/04/03 05:19:54;;;;;;;;;;;;;;;-1.77;60.39;100665.84;1689041;84;21087;-71
2022/04/03 05:22:25;;;;;;;;;;;;;;;-0.49;60.41;100667.86;1674661;85;20209;-72
2022/04/03 05:24:51;;;;;;;;;;;;;;;0.64;60.20;100668.94;1674524;85;20192;-72
2022/04/03 05:27:17;;;;;;;;;;;;;;;1.53;59.79;100675.63;1674593;85;20199;-72
2022/04/03 05:29:43;;;;;;;;;;;;;;;2.05;59.46;100673.66;1685564;84;20206;-72
2022/04/03 05:32:09;;;;;;;;;;;;;;;2.02;58.99;100676.52;1705431;84;21149;-72
2022/04/03 05:34:35;;;;;;;;;;;;;;;2.23;58.44;100673.67;1705673;84;20200;-72
2022/04/03 05:37:01;;;;;;;;;;;;;;;2.10;57.78;100679.92;1705369;84;20768;-72
2022/04/03 05:39:26;;;;;;;;;;;;;;;1.60;57.76;100677.73;1711622;83;20169;-72
2022/04/03 05:41:55;;;;;;;;;;;;;;;1.21;57.80;100677.83;1706221;82;20216;-72
2022/04/03 05:44:20;;;;;;;;;;;;;;;1.22;57.94;100685.63;1685339;83;21209;-72
2022/04/03 05:46:47;;;;;;;;;;;;;;;1.16;57.90;100675.50;1685169;85;20214;-72
2022/04/03 05:49:13;;;;;;;;;;;;;;;0.94;57.88;100679.22;1685256;85;20212;-72
2022/04/03 05:51:38;;;;;;;;;;;;;;;0.73;57.89;100684.57;1692825;83;20724;-72
2022/04/03 05:54:04;;;;;;;;;;;;;;;0.59;57.88;100683.31;1713947;83;20227;-72
2022/04/03 05:56:31;;;;;;;;;;;;;;;0.34;57.87;100686.21;1714072;83;21082;-72
2022/04/03 05:58:57;;;;;;;;;;;;;;;0.02;57.80;100690.02;1713630;83;20402;-72
2022/04/03 06:01:23;;;;;;;;;;;;;;;-0.21;57.77;100690.62;1713843;83;20526;-71
2022/04/03 06:03:49;;;;;;;;;;;;;;;-0.29;57.71;100696.78;1713662;83;20188;-72
2022/04/03 06:06:15;;;;;;;;;;;;;;;-0.31;57.67;100697.33;1714018;83;20201;-72
2022/04/03 06:08:41;;;;;;;;;;;;;;;-0.36;57.64;100697.63;1713948;83;21900;-72
2022/04/03 06:11:07;;;;;;;;;;;;;;;-0.19;57.59;100688.73;1713788;83;20193;-72
2022/04/03 06:13:33;;;;;;;;;;;;;;;-0.20;57.53;100691.81;1714094;83;20212;-72
2022/04/03 06:15:59;;;;;;;;;;;;;;;-0.16;57.52;100699.02;1713793;83;20238;-72
2022/04/03 06:18:25;;;;;;;;;;;;;;;-0.17;57.52;100703.41;1713837;83;20236;-72
2022/04/03 06:20:51;;;;;;;;;;;;;;;-0.17;57.50;100698.64;1713753;83;21216;-72
2022/04/03 06:23:19;;;;;;;;;;;;;;;-0.19;57.47;100699.22;1713996;83;20268;-72
2022/04/03 06:25:45;;;;;;;;;;;;;;;-0.13;57.47;100702.76;1713989;83;20192;-72
2022/04/03 06:28:11;;;;;;;;;;;;;;;-0.02;57.42;100702.94;1714140;83;20193;-72
2022/04/03 06:30:38;;;;;;;;;;;;;;;0.05;57.39;100705.55;1713836;83;20185;-72
2022/04/03 06:33:04;;;;;;;;;;;;;;;-0.01;57.34;100707.26;1713783;83;21148;-72
2022/04/03 06:35:30;;;;;;;;;;;;;;;0.03;57.31;100702.20;1714069;83;20178;-72
2022/04/03 06:37:56;;;;;;;;;;;;;;;0.13;57.29;100711.17;1713815;83;20276;-72
2022/04/03 06:40:23;;;;;;;;;;;;;;;0.18;57.25;100710.86;1683930;85;20545;-72
2022/04/03 06:42:49;;;;;;;;;;;;;;;0.46;57.25;100710.33;1684641;85;20471;-71
2022/04/03 06:45:15;;;;;;;;;;;;;;;0.55;57.15;100717.25;1661009;84;21124;-72
2022/04/03 06:47:41;;;;;;;;;;;;;;;0.49;57.11;100714.06;1673341;84;20157;-72
2022/04/03 06:50:08;;;;;;;;;;;;;;;0.39;57.12;100712.97;1671130;84;20190;-72
2022/04/03 06:52:34;;;;;;;;;;;;;;;0.58;57.07;100717.05;1694990;84;20139;-72
2022/04/03 06:55:00;;;;;;;;;;;;;;;0.69;57.02;100715.42;1698737;84;20167;-72
2022/04/03 06:57:26;;;;;;;;;;;;;;;0.79;56.98;100706.47;1698866;84;21047;-71
2022/04/03 06:59:52;;;;;;;;;;;;;;;0.75;56.94;100716.80;1698215;84;20204;-71
2022/04/03 07:02:18;;;;;;;;;;;;;;;0.71;56.87;100718.77;1694430;83;20202;-71
2022/04/03 07:04:45;;;;;;;;;;;;;;;0.68;56.83;100719.45;1668536;85;20207;-71
2022/04/03 07:07:11;;;;;;;;;;;;;;;0.61;56.79;100726.88;1668514;86;20160;-71
2022/04/03 07:09:40;;;;;;;;;;;;;;;0.52;56.73;100726.63;1679328;85;21113;-71
2022/04/03 07:12:06;;;;;;;;;;;;;;;0.51;56.72;100731.03;1678113;85;20169;-71
2022/04/03 07:14:32;;;;;;;;;;;;;;;0.55;56.67;100730.37;1683017;85;20137;-71
2022/04/03 07:16:58;;;;;;;;;;;;;;;0.57;56.63;100728.01;1684644;85;20184;-72
2022/04/03 07:19:24;;;;;;;;;;;;;;;0.59;56.60;100733.17;1684616;85;20226;-72
2022/04/03 07:21:50;;;;;;;;;;;;;;;0.56;56.56;100734.69;1661026;85;21092;-72
2022/04/03 07:24:17;;;;;;;;;;;;;;;0.55;56.49;100733.84;1684591;84;20174;-71
2022/04/03 07:26:43;;;;;;;;;;;;;;;0.58;56.44;100745.44;1684563;84;20164;-71
2022/04/03 07:29:08;;;;;;;;;;;;;;;0.60;56.42;100741.42;1684001;85;20226;-71
2022/04/03 07:31:34;;;;;;;;;;;;;;;0.74;56.37;100746.63;1684552;85;20235;-71
2022/04/03 07:34:00;;;;;;;;;;;;;;;0.84;56.33;100738.06;1684110;85;21196;-72
2022/04/03 07:36:26;;;;;;;;;;;;;;;0.97;56.31;100738.09;1682602;85;20199;-71
2022/04/03 07:38:52;;;;;;;;;;;;;;;1.08;56.28;100740.85;1660725;84;20220;-72
2022/04/03 07:41:19;;;;;;;;;;;;;;;1.21;56.24;100746.97;1697463;84;20264;-72
2022/04/03 07:43:45;;;;;;;;;;;;;;;1.54;56.20;100743.02;1697821;84;20533;-73
2022/04/03 07:46:16;;;;;;;;;;;;;;;1.97;56.13;100749.66;1698092;84;21055;-72
2022/04/03 07:48:39;;;;;;;;;;;;;;;2.03;56.03;100750.53;1697950;84;20475;-72
2022/04/03 07:51:04;;;;;;;;;;;;;;;2.00;55.96;100747.66;1698103;84;20228;-71
2022/04/03 07:53:30;;;;;;;;;;;;;;;2.03;55.88;100755.80;1698048;84;20197;-72
2022/04/03 07:55:56;;;;;;;;;;;;;;;2.29;55.82;100757.89;1695503;84;20781;-68
2022/04/03 07:58:22;;;;;;;;;;;;;;;2.53;55.72;100755.33;1697706;84;21132;-68
2022/04/03 08:00:48;;;;;;;;;;;;;;;2.55;55.54;100753.41;1697778;84;20719;-68
2022/04/03 08:03:14;;;;;;;;;;;;;;;2.56;55.44;100758.58;1687469;84;20299;-68
2022/04/03 08:05:40;;;;;;;;;;;;;;;2.46;55.29;100758.38;1688255;84;20234;-67
2022/04/03 08:08:06;;;;;;;;;;;;;;;2.48;55.20;100751.23;1688026;84;20220;-68
2022/04/03 08:10:32;;;;;;;;;;;;;;;2.79;55.09;100756.91;1689702;84;21120;-69
2022/04/03 08:12:58;;;;;;;;;;;;;;;3.28;54.96;100756.28;1682311;84;20840;-68
2022/04/03 08:15:25;;;;;;;;;;;;;;;3.66;54.76;100755.20;1667388;86;20262;-68
2022/04/03 08:17:51;;;;;;;;;;;;;;;3.68;54.53;100751.95;1672228;84;20214;-68
2022/04/03 08:20:17;;;;;;;;;;;;;;;3.56;54.32;100756.36;1690101;84;20520;-68
2022/04/03 08:22:44;;;;;;;;;;;;;;;3.47;54.15;100757.92;1682865;84;21758;-69
2022/04/03 08:25:10;;;;;;;;;;;;;;;3.63;54.01;100756.73;1673951;84;20299;-69
2022/04/03 08:27:46;;;;;;;;;;;;;;;3.89;53.82;100760.86;1675530;84;20465;-69
2022/04/03 08:30:22;;;;;;;;;;;;;;;4.21;53.60;100753.92;1684545;84;20536;-69
2022/04/03 08:32:48;;;;;;;;;;;;;;;4.50;53.26;100755.07;1685946;84;20505;-70
2022/04/03 08:35:17;;;;;;;;;;;;;;;4.38;52.66;100752.58;1674357;84;21176;-69
2022/04/03 08:37:44;;;;;;;;;;;;;;;4.45;52.41;100746.70;1678179;84;20217;-69
2022/04/03 08:40:10;;;;;;;;;;;;;;;4.57;52.05;100750.17;1684271;84;20289;-69
2022/04/03 08:42:36;;;;;;;;;;;;;;;4.71;51.64;100749.05;1696682;84;20162;-69
2022/04/03 08:45:02;;;;;;;;;;;;;;;4.73;51.26;100752.40;1697251;84;20197;-69
2022/04/03 08:47:28;;;;;;;;;;;;;;;4.87;50.89;100750.80;1675161;84;21114;-70
2022/04/03 08:50:00;;;;;;;;;;;;;;;4.68;50.37;100742.19;1696726;84;20185;-70
2022/04/03 08:52:28;;;;;;;;;;;;;;;4.44;49.96;100748.97;1697237;84;20159;-69
2022/04/03 08:54:54;;;;;;;;;;;;;;;4.24;49.57;100739.16;1696309;83;20648;-70
2022/04/03 08:57:20;;;;;;;;;;;;;;;4.03;49.27;100747.44;1693904;84;20178;-69
2022/04/03 08:59:46;;;;;;;;;;;;;;;4.07;48.99;100746.25;1694363;84;21149;-69
2022/04/03 09:02:14;;;;;;;;;;;;;;;4.08;48.69;100743.98;1684900;85;20185;-69
2022/04/03 09:04:40;;;;;;;;;;;;;;;4.07;48.44;100740.97;1694116;84;20451;-69
2022/04/03 09:07:06;;;;;;;;;;;;;;;4.14;48.17;100750.08;1718717;83;20187;-69
2022/04/03 09:09:32;;;;;;;;;;;;;;;4.11;47.74;100747.69;1699991;83;20260;-69
2022/04/03 09:12:13;;;;;;;;;;;;;;;4.10;47.42;100751.28;1693684;84;21189;-69
2022/04/03 09:14:54;;;;;;;;;;;;;;;4.05;47.17;100737.59;1685773;84;20131;-69
2022/04/03 09:17:42;;;;;;;;;;;;;;;3.97;46.89;100746.13;1690230;84;20159;-69
2022/04/03 09:20:09;;;;;;;;;;;;;;;4.12;46.69;100740.62;1697151;84;20431;-69
2022/04/03 09:22:36;;;;;;;;;;;;;;;4.22;46.46;100729.19;1687783;84;20323;-69
2022/04/03 09:25:04;;;;;;;;;;;;;;;4.38;46.25;100734.95;1686558;84;21017;-69
2022/04/03 09:27:34;;;;;;;;;;;;;;;4.53;46.04;100745.61;1697156;84;20198;-69
2022/04/03 09:30:04;;;;;;;;;;;;;;;4.47;45.67;100739.48;1696806;84;20181;-69
2022/04/03 09:32:30;;;;;;;;;;;;;;;4.30;45.33;100734.70;1678723;84;20174;-69
2022/04/03 09:34:57;;;;;;;;;;;;;;;4.42;45.16;100733.74;1696249;84;20777;-70
2022/04/03 09:37:23;;;;;;;;;;;;;;;4.53;44.95;100735.05;1696738;84;21888;-70
2022/04/03 09:39:49;;;;;;;;;;;;;;;4.43;44.78;100738.04;1702792;83;20235;-70
2022/04/03 09:42:15;;;;;;;;;;;;;;;4.36;44.56;100743.45;1712707;83;20267;-70
2022/04/03 09:44:44;;;;;;;;;;;;;;;4.21;44.41;100739.41;1708836;83;20166;-70
2022/04/03 09:47:33;;;;;;;;;;;;;;;4.17;44.27;100739.28;1726651;82;20192;-70
2022/04/03 09:50:01;;;;;;;;;;;;;;;4.21;44.13;100738.09;1704795;83;21080;-70
2022/04/03 09:52:45;;;;;;;;;;;;;;;4.20;43.91;100741.67;1726019;83;20184;-70
2022/04/03 09:55:20;;;;;;;;;;;;;;;4.09;43.68;100746.95;1730583;82;20156;-69
2022/04/03 09:57:47;;;;;;;;;;;;;;;4.08;43.55;100746.62;1731997;82;20160;-70
2022/04/03 10:00:15;;;;;;;;;;;;;;;4.12;43.47;100740.11;1730900;83;20156;-70
2022/04/03 10:02:47;;;;;;;;;;;;;;;4.13;43.38;100737.84;1652361;84;21784;-70
2022/04/03 10:05:13;;;;;;;;;;;;;;;4.17;43.29;100736.64;1729587;83;20190;-70
2022/04/03 10:07:39;;;;;;;;;;;;;;;4.25;43.21;100739.52;1730421;83;20231;-70
2022/04/03 10:10:06;;;;;;;;;;;;;;;4.31;43.03;100740.35;1696813;84;20165;-70
2022/04/03 10:12:32;;;;;;;;;;;;;;;4.48;42.89;100738.52;1705967;83;20205;-70
2022/04/03 10:14:57;;;;;;;;;;;;;;;4.59;42.76;100740.78;1713462;83;21118;-71
2022/04/03 10:17:23;;;;;;;;;;;;;;;4.59;42.60;100736.34;1706916;83;20239;-71
2022/04/03 10:19:51;;;;;;;;;;;;;;;4.71;42.53;100730.56;1713387;83;20252;-71
2022/04/03 10:22:22;;;;;;;;;;;;;;;4.77;42.38;100731.38;1712932;83;20294;-70
2022/04/03 10:24:51;;;;;;;;;;;;;;;4.89;42.32;100732.52;1688594;83;20563;-70
2022/04/03 10:27:23;;;;;;;;;;;;;;;4.89;42.13;100726.42;1713188;82;21327;-70
2022/04/03 10:29:49;;;;;;;;;;;;;;;4.82;42.07;100723.92;1712742;83;20190;-70
2022/04/03 10:32:24;;;;;;;;;;;;;;;4.68;41.84;100725.53;1713188;83;20217;-71
2022/04/03 10:34:51;;;;;;;;;;;;;;;4.62;41.74;100726.00;1706767;83;20186;-71
2022/04/03 10:37:35;;;;;;;;;;;;;;;4.47;41.46;100722.31;1701426;82;20201;-71
2022/04/03 10:40:03;;;;;;;;;;;;;;;4.42;41.37;100728.46;1709532;83;22188;-70
2022/04/03 10:42:30;;;;;;;;;;;;;;;4.45;41.29;100722.09;1702295;84;20217;-71
2022/04/03 10:45:14;;;;;;;;;;;;;;;4.42;41.17;100720.54;1702353;84;20250;-71
2022/04/03 10:47:43;;;;;;;;;;;;;;;4.46;41.13;100724.63;1699618;83;20236;-71
2022/04/03 10:50:10;;;;;;;;;;;;;;;4.49;41.02;100720.41;1706509;82;20178;-69
2022/04/03 10:52:40;;;;;;;;;;;;;;;4.57;40.96;100714.98;1706667;83;21019;-69
2022/04/03 10:55:24;;;;;;;;;;;;;;;4.49;40.86;100717.77;1703014;82;20189;-69
2022/04/03 10:57:54;;;;;;;;;;;;;;;4.52;40.78;100720.16;1704154;82;20162;-69
2022/04/03 11:00:27;;;;;;;;;;;;;;;4.54;40.72;100723.50;1700269;82;20161;-69
2022/04/03 11:02:59;;;;;;;;;;;;;;;4.57;40.66;100724.23;1705743;82;20233;-69
2022/04/03 11:05:31;;;;;;;;;;;;;;;4.64;40.65;100722.78;1706996;83;21147;-69
2022/04/03 11:08:03;;;;;;;;;;;;;;;4.68;40.59;100718.42;1700534;82;20208;-69
2022/04/03 11:10:52;;;;;;;;;;;;;;;4.81;40.47;100722.24;1707682;82;20189;-69
2022/04/03 11:13:22;;;;;;;;;;;;;;;4.88;40.42;100722.09;1713716;81;20211;-69
2022/04/03 11:15:51;;;;;;;;;;;;;;;4.99;40.25;100718.09;1687082;83;20226;-69
2022/04/03 11:18:25;;;;;;;;;;;;;;;5.12;40.14;100716.59;1668608;83;21148;-69
2022/04/03 11:21:12;;;;;;;;;;;;;;;5.24;40.09;100708.45;1719639;82;20162;-69
2022/04/03 11:23:40;;;;;;;;;;;;;;;5.33;39.95;100718.28;1674421;83;20186;-69
2022/04/03 11:26:06;;;;;;;;;;;;;;;5.30;39.85;100701.84;1703296;82;20187;-69
2022/04/03 11:28:34;;;;;;;;;;;;;;;5.21;39.72;100707.40;1704644;82;20315;-69
2022/04/03 11:31:00;;;;;;;;;;;;;;;5.23;39.66;100705.48;1699094;82;21104;-70
2022/04/03 11:33:28;;;;;;;;;;;;;;;5.23;39.55;100698.03;1696897;82;20258;-70
2022/04/03 11:35:54;;;;;;;;;;;;;;;5.11;39.30;100702.53;1702790;82;20169;-70
2022/04/03 11:38:20;;;;;;;;;;;;;;;4.94;39.15;100697.80;1706654;82;20457;-69
2022/04/03 11:40:50;;;;;;;;;;;;;;;4.90;39.07;100699.02;1704695;82;20162;-70
2022/04/03 11:43:18;;;;;;;;;;;;;;;4.91;38.98;100700.70;1708049;82;21163;-69
2022/04/03 11:45:58;;;;;;;;;;;;;;;4.91;38.89;100696.26;1693150;82;20155;-70
2022/04/03 11:48:26;;;;;;;;;;;;;;;4.97;38.82;100696.22;1701900;82;20525;-70
2022/04/03 11:51:08;;;;;;;;;;;;;;;5.02;38.71;100688.29;1700986;82;20197;-69
2022/04/03 11:53:35;;;;;;;;;;;;;;;5.25;38.74;100677.09;1676749;82;20224;-70
2022/04/03 11:56:14;;;;;;;;;;;;;;;5.44;38.61;100675.06;1701907;82;21120;-70
2022/04/03 11:58:41;;;;;;;;;;;;;;;5.47;38.53;100676.97;1707136;82;20187;-70
2022/04/03 12:01:07;;;;;;;;;;;;;;;5.85;38.53;100668.38;1703796;82;20460;-70
2022/04/03 12:03:34;;;;;;;;;;;;;;;6.01;38.22;100670.57;1705955;82;20279;-69
2022/04/03 12:06:17;;;;;;;;;;;;;;;5.92;38.13;100660.77;1705822;82;20245;-70
2022/04/03 12:08:46;;;;;;;;;;;;;;;5.83;38.03;100662.88;1702720;82;21133;-70
2022/04/03 12:11:17;;;;;;;;;;;;;;;5.70;37.85;100667.56;1700310;82;20174;-69
2022/04/03 12:13:43;;;;;;;;;;;;;;;5.55;37.65;100668.38;1702487;82;20182;-70
2022/04/03 12:16:17;;;;;;;;;;;;;;;5.45;37.53;100668.82;1705532;82;20186;-69
2022/04/03 12:18:50;;;;;;;;;;;;;;;5.36;37.47;100663.81;1700150;82;20170;-70
2022/04/03 12:21:16;;;;;;;;;;;;;;;5.43;37.51;100659.67;1706470;82;20913;-70
2022/04/03 12:24:03;;;;;;;;;;;;;;;5.54;37.49;100660.92;1702203;82;20204;-69
2022/04/03 12:26:29;;;;;;;;;;;;;;;5.61;37.46;100656.42;1700942;82;20163;-70
2022/04/03 12:28:56;;;;;;;;;;;;;;;5.71;37.45;100659.47;1704358;82;20201;-70
2022/04/03 12:31:28;;;;;;;;;;;;;;;5.71;37.40;100661.27;1708443;83;20201;-69
2022/04/03 12:34:05;;;;;;;;;;;;;;;5.75;37.37;100650.78;1692798;82;21084;-70
2022/04/03 12:36:43;;;;;;;;;;;;;;;5.91;37.35;100653.83;1708162;82;20221;-70
2022/04/03 12:39:32;;;;;;;;;;;;;;;5.84;37.20;100660.08;1686590;84;20156;-71
2022/04/03 12:42:22;;;;;;;;;;;;;;;5.75;37.12;100657.39;1689104;83;20217;-70
2022/04/03 12:44:55;;;;;;;;;;;;;;;5.73;37.08;100647.45;1688954;84;20218;-71